Time;durP1;ratioP1;P1;durP2;ratioP2;P2;SDS_P1;SDS_P2;PMS_P1;PMS_P2;Temp;Humidity;BMP_temperature;BMP_pressure;BME280_temperature;BME280_humidity;BME280_pressure;Samples;Min_cycle;Max_cycle;Signal;HPM_P1;HPM_P2
2021/12/05 00:39:39;;;;;;;2.70;1.98;;;;;;;14.63;55.50;99270.38;21048480;28;20059;-72
2021/12/05 01:10:29;;;;;;;4.57;2.53;;;;;;;14.63;55.39;99264.16;21047948;28;20043;-72
2021/12/05 01:20:44;;;;;;;2.97;1.67;;;;;;;14.10;55.49;99183.72;21048582;28;20076;-72
2021/12/05 01:31:16;;;;;;;2.97;1.80;;;;;;;14.67;55.13;99315.59;21061137;28;20457;-72
2021/12/05 01:41:46;;;;;;;3.63;1.55;;;;;;;14.65;55.44;99316.59;21046404;28;20131;-72
2021/12/05 02:42:33;;;;;;;2.67;1.35;;;;;;;14.82;55.16;99348.91;21054869;28;20101;-72
2021/12/05 02:52:39;;;;;;;2.45;1.30;;;;;;;14.14;55.46;99253.81;21047631;28;20045;-72
2021/12/05 03:02:45;;;;;;;2.07;0.93;;;;;;;14.77;54.92;99352.03;21053911;28;20056;-72
2021/12/05 03:12:47;;;;;;;2.95;1.33;;;;;;;14.44;55.20;99306.19;21053995;28;20439;-72
2021/12/05 03:22:50;;;;;;;2.55;1.48;;;;;;;14.12;55.25;99248.66;21054999;28;20117;-72
2021/12/05 03:32:54;;;;;;;3.50;1.48;;;;;;;14.52;55.48;99318.78;21036726;28;20071;-72
2021/12/05 03:42:59;;;;;;;3.42;1.83;;;;;;;14.21;54.94;99266.47;21054287;28;20078;-72
2021/12/05 03:53:03;;;;;;;2.80;1.52;;;;;;;14.60;55.23;99348.34;21054439;28;20115;-72
2021/12/05 04:03:08;;;;;;;3.15;1.60;;;;;;;14.78;55.31;99355.56;21051481;28;20467;-72
2021/12/05 04:13:10;;;;;;;3.70;1.67;;;;;;;14.84;55.36;99378.22;21067243;28;20374;-72
2021/12/05 04:23:13;;;;;;;3.95;1.83;;;;;;;14.79;54.93;99376.00;21049739;28;20052;-72
2021/12/05 04:33:16;;;;;;;4.22;1.52;;;;;;;14.79;54.75;99381.34;21065921;28;20036;-72
2021/12/05 04:43:18;;;;;;;2.33;1.50;;;;;;;14.19;54.96;99294.38;21048248;28;20052;-72
2021/12/05 04:53:22;;;;;;;5.25;1.92;;;;;;;14.83;55.22;99398.81;21101905;27;20053;-72
2021/12/05 05:03:25;;;;;;;3.58;1.63;;;;;;;14.74;54.93;99395.19;21054060;28;20574;-73
2021/12/05 05:13:27;;;;;;;3.13;1.50;;;;;;;14.12;54.90;99312.00;21075329;28;20048;-73
2021/12/05 05:44:37;;;;;;;3.22;1.70;;;;;;;14.83;54.76;99475.69;21063265;28;20055;-72
2021/12/05 05:54:40;;;;;;;5.32;2.10;;;;;;;14.82;54.48;99464.09;21069396;28;20070;-72
2021/12/05 06:04:41;;;;;;;3.45;1.52;;;;;;;14.17;54.74;99365.97;21041911;28;20051;-72
2021/12/05 06:14:43;;;;;;;4.28;1.60;;;;;;;14.73;54.50;99476.56;21011779;28;20041;-72
2021/12/05 06:24:45;;;;;;;5.78;1.75;;;;;;;14.32;54.74;99396.56;21028258;28;20051;-72
2021/12/05 06:55:28;;;;;;;4.00;1.67;;;;;;;15.76;53.70;99534.34;20979590;28;20404;-72
2021/12/05 07:16:08;;;;;;;4.80;1.58;;;;;;;15.44;53.50;99482.09;21164222;28;20059;-73
2021/12/05 07:26:34;;;;;;;5.72;2.00;;;;;;;16.18;53.21;99628.63;21108868;28;20050;-72
2021/12/05 07:46:51;;;;;;;4.00;1.98;;;;;;;16.36;53.09;99620.53;21072845;28;20040;-73
2021/12/05 07:57:05;;;;;;;5.97;1.90;;;;;;;16.07;53.01;99595.69;21109439;28;20051;-72
2021/12/05 08:17:28;;;;;;;4.97;1.65;;;;;;;16.20;52.85;99621.25;21084906;28;20055;-72
2021/12/05 08:27:30;;;;;;;4.03;1.73;;;;;;;16.48;52.82;99669.50;21084202;28;20055;-72
2021/12/05 09:29:20;;;;;;;3.05;1.52;;;;;;;16.58;53.51;99769.63;21064190;28;20106;-72
2021/12/05 10:51:24;;;;;;;2.92;1.05;;;;;;;16.38;53.62;99818.16;21073339;28;20047;-71
2021/12/05 11:01:29;;;;;;;5.22;1.75;;;;;;;16.63;53.68;99877.50;21072372;28;20151;-71
2021/12/05 11:11:31;;;;;;;3.50;1.60;;;;;;;16.15;53.44;99817.75;21072029;28;20444;-71
2021/12/05 11:21:34;;;;;;;2.97;1.58;;;;;;;16.70;53.61;99936.88;21071818;28;20098;-71
2021/12/05 11:31:38;;;;;;;4.07;1.67;;;;;;;16.72;53.59;99931.31;21036915;28;20044;-71
2021/12/05 11:41:39;;;;;;;3.45;1.58;;;;;;;16.13;53.32;99840.38;21053247;28;20055;-71
2021/12/05 11:51:47;;;;;;;3.53;1.58;;;;;;;16.43;53.69;99895.59;21053404;28;20114;-69
2021/12/05 12:01:55;;;;;;;4.03;1.92;;;;;;;16.72;53.43;99958.19;21070739;28;20143;-70
2021/12/05 12:11:58;;;;;;;3.33;1.85;;;;;;;16.70;53.50;99954.81;21070069;28;20040;-70
2021/12/05 12:22:03;;;;;;;2.17;1.65;;;;;;;14.66;53.45;99641.53;21065613;28;20480;-70
2021/12/05 12:32:12;;;;;;;3.03;1.58;;;;;;;16.69;53.22;99997.00;21066998;28;20134;-70
2021/12/05 12:42:23;;;;;;;2.42;1.25;;;;;;;16.67;53.47;99999.81;21065534;28;20078;-70
2021/12/05 12:52:25;;;;;;;2.40;1.17;;;;;;;16.68;53.14;100006.88;21082451;28;20052;-70
2021/12/05 13:02:37;;;;;;;2.60;1.17;;;;;;;16.65;53.42;100007.19;21081675;28;20122;-70
2021/12/05 13:12:44;;;;;;;2.05;1.40;;;;;;;16.70;53.35;100035.44;21081114;28;20067;-70
2021/12/05 13:23:05;;;;;;;1.67;1.10;;;;;;;16.07;52.93;99928.59;21080102;28;20050;-70
2021/12/05 13:33:23;;;;;;;1.13;0.90;;;;;;;16.53;53.27;100024.50;21078790;28;20098;-70
2021/12/05 13:43:29;;;;;;;2.35;1.05;;;;;;;16.74;53.04;100069.94;21060137;28;20059;-70
2021/12/05 13:53:38;;;;;;;1.58;1.00;;;;;;;16.73;52.86;100095.13;21042886;28;20044;-70
2021/12/05 14:03:52;;;;;;;2.55;1.00;;;;;;;16.78;53.12;100100.91;21041998;28;20060;-70
2021/12/05 14:13:54;;;;;;;1.40;1.00;;;;;;;16.75;53.11;100109.28;21075984;28;20048;-70
2021/12/05 14:23:58;;;;;;;3.83;1.48;;;;;;;16.72;53.01;100140.97;21075233;28;20036;-70
2021/12/05 14:34:01;;;;;;;1.83;0.90;;;;;;;16.62;52.84;100136.47;21074376;28;20493;-70
2021/12/05 14:44:04;;;;;;;2.03;1.08;;;;;;;16.68;52.81;100181.56;21073091;28;20044;-70
2021/12/05 14:54:07;;;;;;;2.10;1.40;;;;;;;16.12;52.65;100123.31;21064976;28;20551;-70
2021/12/05 15:04:10;;;;;;;1.98;0.82;;;;;;;16.13;52.58;100133.06;21072324;28;20070;-70
2021/12/05 15:14:12;;;;;;;1.55;1.15;;;;;;;16.61;52.76;100223.47;21054272;28;20046;-70
2021/12/05 15:24:15;;;;;;;2.97;1.30;;;;;;;16.11;52.61;100153.84;21072260;28;20570;-70
2021/12/05 15:34:20;;;;;;;1.67;1.23;;;;;;;16.77;52.79;100283.81;21071181;28;20062;-70
2021/12/05 15:44:36;;;;;;;1.73;1.13;;;;;;;16.18;52.67;100204.16;21071048;28;20040;-70
2021/12/05 15:54:39;;;;;;;1.40;1.17;;;;;;;16.32;52.49;100253.88;21049085;28;20052;-70
2021/12/05 16:04:41;;;;;;;2.20;1.23;;;;;;;16.14;52.84;100226.06;21051401;28;20672;-70
2021/12/05 16:14:46;;;;;;;2.80;1.58;;;;;;;16.70;52.76;100336.47;21085625;28;20036;-70
2021/12/05 16:24:47;;;;;;;3.13;1.67;;;;;;;16.74;52.63;100356.69;21085345;28;20392;-70
2021/12/05 16:34:51;;;;;;;2.83;1.30;;;;;;;16.74;52.74;100370.13;21066118;28;20069;-70
2021/12/05 16:44:58;;;;;;;2.85;1.75;;;;;;;16.74;52.52;100400.56;21083191;28;20097;-70
2021/12/05 16:55:22;;;;;;;2.72;1.42;;;;;;;16.33;52.81;100346.91;21064063;28;20082;-70
2021/12/05 17:05:27;;;;;;;4.25;1.48;;;;;;;16.76;52.82;100432.66;21062810;28;20040;-70
2021/12/05 17:15:31;;;;;;;2.80;1.83;;;;;;;16.60;52.77;100415.25;21080837;28;20048;-70
2021/12/05 17:25:40;;;;;;;3.75;2.05;;;;;;;16.79;52.59;100464.63;21061960;28;20101;-70
2021/12/05 17:35:42;;;;;;;2.25;1.60;;;;;;;16.56;52.60;100443.41;21061379;28;20050;-70
2021/12/05 17:45:44;;;;;;;3.67;2.55;;;;;;;16.17;52.61;100392.28;21078433;28;20031;-70
2021/12/05 17:55:48;;;;;;;3.42;1.98;;;;;;;16.75;52.73;100500.84;21077440;28;20185;-70
2021/12/05 18:05:50;;;;;;;4.15;2.63;;;;;;;16.46;52.56;100474.78;21059121;28;20056;-70
2021/12/05 18:16:03;;;;;;;3.85;2.70;;;;;;;16.57;52.48;100509.59;21075111;28;20044;-70
2021/12/05 18:26:06;;;;;;;3.40;2.78;;;;;;;16.16;52.57;100463.06;21075480;28;20552;-70
2021/12/05 18:36:08;;;;;;;3.55;2.78;;;;;;;16.73;52.44;100570.03;21074825;28;20039;-70
2021/12/05 18:46:11;;;;;;;4.22;3.13;;;;;;;16.79;52.24;100601.75;21039411;28;20086;-70
2021/12/05 18:56:13;;;;;;;5.55;3.63;;;;;;;16.17;52.40;100507.75;21055540;28;20044;-70
2021/12/05 19:06:20;;;;;;;5.18;3.97;;;;;;;16.71;52.36;100631.16;21054746;28;20056;-70
2021/12/05 19:16:22;;;;;;;4.68;3.40;;;;;;;16.75;51.99;100630.75;21072622;28;20044;-71
2021/12/05 19:26:26;;;;;;;5.65;3.63;;;;;;;16.67;52.52;100636.78;21080015;28;20105;-70
2021/12/05 19:36:30;;;;;;;4.40;3.25;;;;;;;16.77;52.36;100644.91;21071227;28;20050;-70
2021/12/05 19:46:34;;;;;;;4.22;3.60;;;;;;;16.59;52.24;100627.72;21088007;28;20052;-70
2021/12/05 19:56:39;;;;;;;5.07;4.10;;;;;;;16.52;52.10;100628.22;21086999;28;20454;-70
2021/12/05 20:06:42;;;;;;;5.47;4.32;;;;;;;16.08;52.08;100558.59;21068517;28;20090;-70
2021/12/05 20:16:44;;;;;;;5.50;4.28;;;;;;;16.62;51.85;100671.28;21051150;28;20558;-71
2021/12/05 20:26:48;;;;;;;4.85;3.50;;;;;;;16.63;51.96;100686.44;21084863;28;20489;-70
2021/12/05 20:36:50;;;;;;;5.07;4.30;;;;;;;16.12;52.03;100622.78;21065029;28;20279;-70
2021/12/05 20:46:52;;;;;;;4.10;3.63;;;;;;;16.55;51.99;100737.31;21083063;28;20051;-69
2021/12/05 20:56:54;;;;;;;4.07;3.15;;;;;;;16.40;51.85;100744.00;21082215;28;20485;-69
2021/12/05 21:06:56;;;;;;;4.53;3.55;;;;;;;16.17;52.21;100742.28;21081673;28;20393;-69
2021/12/05 21:16:59;;;;;;;4.05;2.97;;;;;;;15.64;52.43;100676.75;21081099;28;20101;-69
2021/12/05 21:27:01;;;;;;;3.67;2.90;;;;;;;15.38;52.91;100654.75;21062282;28;20035;-69
2021/12/05 21:37:04;;;;;;;4.03;2.95;;;;;;;15.94;52.96;100785.31;21079138;28;20044;-70
2021/12/05 21:47:06;;;;;;;4.32;3.38;;;;;;;15.75;53.33;100782.41;21078160;28;20055;-70
2021/12/05 21:57:08;;;;;;;3.55;3.00;;;;;;;15.77;53.32;100813.50;21077907;28;20071;-69
2021/12/05 22:07:10;;;;;;;3.70;3.17;;;;;;;15.06;53.62;100711.88;21076724;28;20101;-70
2021/12/05 22:17:12;;;;;;;4.20;3.65;;;;;;;15.55;53.63;100848.41;21058050;28;20101;-69
2021/12/05 22:27:15;;;;;;;4.95;3.70;;;;;;;14.67;53.54;100722.88;21075294;28;20044;-70
2021/12/05 22:37:22;;;;;;;4.40;3.78;;;;;;;15.28;53.38;100841.56;21074713;28;20101;-70
2021/12/05 22:47:24;;;;;;;4.65;4.25;;;;;;;14.51;53.27;100728.56;21075177;28;20051;-70
2021/12/05 22:57:26;;;;;;;5.07;4.13;;;;;;;14.90;53.71;100836.38;21072947;28;20059;-69
2021/12/05 23:07:28;;;;;;;4.80;3.97;;;;;;;15.06;53.49;100875.44;21072566;28;20105;-70
2021/12/05 23:17:30;;;;;;;4.93;4.28;;;;;;;14.96;53.90;100893.16;21072321;28;20048;-69
2021/12/05 23:27:32;;;;;;;4.88;4.22;;;;;;;14.76;53.91;100879.47;21071756;28;20048;-69
2021/12/05 23:37:37;;;;;;;5.05;4.55;;;;;;;14.79;54.04;100898.84;21071279;28;20078;-69
2021/12/05 23:47:42;;;;;;;4.75;4.25;;;;;;;14.71;53.68;100900.41;21070998;28;20365;-69
2021/12/05 23:57:45;;;;;;;5.27;4.53;;;;;;;13.47;54.06;100712.19;21053284;28;20052;-69
